sensor_id;sensor_type;location;lat;lon;timestamp;P1;durP1;ratioP1;P2;durP2;ratioP2
12577;SDS011;6354;51.026;8.968;2022-12-18T00:02:24;1049.63;;;939.43;;
12577;SDS011;6354;51.026;8.968;2022-12-18T00:04:52;1051.13;;;941.57;;
12577;SDS011;6354;51.026;8.968;2022-12-18T00:07:22;1122.57;;;989.47;;
12577;SDS011;6354;51.026;8.968;2022-12-18T00:09:50;1058.80;;;951.20;;
12577;SDS011;6354;51.026;8.968;2022-12-18T00:12:18;1079.60;;;961.60;;
12577;SDS011;6354;51.026;8.968;2022-12-18T00:14:46;1229.27;;;999.90;;
12577;SDS011;6354;51.026;8.968;2022-12-18T00:17:14;1133.37;;;990.73;;
12577;SDS011;6354;51.026;8.968;2022-12-18T00:19:42;1081.20;;;964.10;;
12577;SDS011;6354;51.026;8.968;2022-12-18T00:22:10;1068.57;;;950.10;;
12577;SDS011;6354;51.026;8.968;2022-12-18T00:24:40;1043.73;;;934.87;;
12577;SDS011;6354;51.026;8.968;2022-12-18T00:27:08;1123.73;;;992.33;;
12577;SDS011;6354;51.026;8.968;2022-12-18T00:29:36;1050.60;;;942.40;;
12577;SDS011;6354;51.026;8.968;2022-12-18T00:32:08;1350.47;;;963.50;;
12577;SDS011;6354;51.026;8.968;2022-12-18T00:34:36;1177.23;;;861.83;;
12577;SDS011;6354;51.026;8.968;2022-12-18T00:37:04;1347.33;;;911.83;;
12577;SDS011;6354;51.026;8.968;2022-12-18T00:39:32;1344.17;;;935.87;;
12577;SDS011;6354;51.026;8.968;2022-12-18T00:42:02;1405.73;;;994.83;;
12577;SDS011;6354;51.026;8.968;2022-12-18T00:44:47;1284.70;;;895.03;;
12577;SDS011;6354;51.026;8.968;2022-12-18T00:47:16;1368.67;;;999.90;;
12577;SDS011;6354;51.026;8.968;2022-12-18T00:49:44;1372.13;;;999.90;;
12577;SDS011;6354;51.026;8.968;2022-12-18T00:52:12;1456.73;;;997.97;;
12577;SDS011;6354;51.026;8.968;2022-12-18T00:54:40;1314.87;;;999.90;;
12577;SDS011;6354;51.026;8.968;2022-12-18T00:57:10;1234.00;;;998.83;;
12577;SDS011;6354;51.026;8.968;2022-12-18T00:59:38;1243.47;;;999.90;;
12577;SDS011;6354;51.026;8.968;2022-12-18T01:02:06;1259.43;;;999.90;;
12577;SDS011;6354;51.026;8.968;2022-12-18T01:04:34;1195.60;;;999.90;;
12577;SDS011;6354;51.026;8.968;2022-12-18T01:07:02;1260.50;;;999.90;;
12577;SDS011;6354;51.026;8.968;2022-12-18T01:09:30;1082.30;;;962.07;;
12577;SDS011;6354;51.026;8.968;2022-12-18T01:11:58;1151.23;;;989.53;;
12577;SDS011;6354;51.026;8.968;2022-12-18T01:14:28;1048.07;;;933.20;;
12577;SDS011;6354;51.026;8.968;2022-12-18T01:16:56;1105.33;;;973.60;;
12577;SDS011;6354;51.026;8.968;2022-12-18T01:19:24;1269.33;;;999.90;;
12577;SDS011;6354;51.026;8.968;2022-12-18T01:21:52;1278.73;;;969.33;;
12577;SDS011;6354;51.026;8.968;2022-12-18T01:24:20;1183.83;;;999.90;;
12577;SDS011;6354;51.026;8.968;2022-12-18T01:26:48;1137.63;;;999.60;;
12577;SDS011;6354;51.026;8.968;2022-12-18T01:29:17;1071.17;;;956.23;;
12577;SDS011;6354;51.026;8.968;2022-12-18T01:31:46;1137.63;;;995.00;;
12577;SDS011;6354;51.026;8.968;2022-12-18T01:34:14;1173.90;;;999.90;;
12577;SDS011;6354;51.026;8.968;2022-12-18T01:36:43;1112.67;;;971.63;;
12577;SDS011;6354;51.026;8.968;2022-12-18T01:39:11;1129.07;;;997.27;;
12577;SDS011;6354;51.026;8.968;2022-12-18T01:41:40;1113.93;;;979.93;;
12577;SDS011;6354;51.026;8.968;2022-12-18T01:47:27;1179.90;;;955.70;;
12577;SDS011;6354;51.026;8.968;2022-12-18T01:49:59;1218.87;;;992.83;;
12577;SDS011;6354;51.026;8.968;2022-12-18T01:52:31;1147.53;;;977.50;;
12577;SDS011;6354;51.026;8.968;2022-12-18T01:55:00;1312.50;;;999.90;;
12577;SDS011;6354;51.026;8.968;2022-12-18T01:57:30;1485.27;;;999.90;;
12577;SDS011;6354;51.026;8.968;2022-12-18T02:00:00;1406.27;;;983.87;;
12577;SDS011;6354;51.026;8.968;2022-12-18T02:02:31;1235.33;;;952.40;;
12577;SDS011;6354;51.026;8.968;2022-12-18T02:05:00;1223.07;;;876.87;;
12577;SDS011;6354;51.026;8.968;2022-12-18T02:07:31;1728.40;;;999.90;;
12577;SDS011;6354;51.026;8.968;2022-12-18T02:10:06;1232.73;;;890.53;;
12577;SDS011;6354;51.026;8.968;2022-12-18T02:12:42;1077.40;;;812.67;;
12577;SDS011;6354;51.026;8.968;2022-12-18T02:15:13;1276.87;;;894.57;;
12577;SDS011;6354;51.026;8.968;2022-12-18T02:17:48;1183.83;;;995.07;;
12577;SDS011;6354;51.026;8.968;2022-12-18T02:20:21;1248.90;;;989.70;;
12577;SDS011;6354;51.026;8.968;2022-12-18T02:23:01;1141.83;;;973.57;;
12577;SDS011;6354;51.026;8.968;2022-12-18T02:25:42;1040.23;;;925.40;;
12577;SDS011;6354;51.026;8.968;2022-12-18T02:28:40;1095.50;;;964.37;;
12577;SDS011;6354;51.026;8.968;2022-12-18T02:31:13;1074.47;;;948.77;;
12577;SDS011;6354;51.026;8.968;2022-12-18T02:33:44;1103.37;;;984.03;;
12577;SDS011;6354;51.026;8.968;2022-12-18T02:36:14;1059.83;;;939.40;;
12577;SDS011;6354;51.026;8.968;2022-12-18T02:38:44;1003.10;;;906.73;;
12577;SDS011;6354;51.026;8.968;2022-12-18T02:41:14;1033.00;;;927.53;;
12577;SDS011;6354;51.026;8.968;2022-12-18T02:43:47;1155.57;;;969.00;;
12577;SDS011;6354;51.026;8.968;2022-12-18T02:46:24;1163.90;;;907.13;;
12577;SDS011;6354;51.026;8.968;2022-12-18T02:48:57;1068.80;;;950.33;;
12577;SDS011;6354;51.026;8.968;2022-12-18T02:51:36;976.57;;;869.70;;
12577;SDS011;6354;51.026;8.968;2022-12-18T02:54:13;1123.57;;;988.27;;
12577;SDS011;6354;51.026;8.968;2022-12-18T02:56:53;1112.43;;;935.60;;
12577;SDS011;6354;51.026;8.968;2022-12-18T02:59:25;1232.23;;;926.17;;
12577;SDS011;6354;51.026;8.968;2022-12-18T03:02:09;1285.37;;;955.57;;
12577;SDS011;6354;51.026;8.968;2022-12-18T03:04:47;1213.17;;;934.13;;
12577;SDS011;6354;51.026;8.968;2022-12-18T03:07:27;1086.93;;;862.33;;
12577;SDS011;6354;51.026;8.968;2022-12-18T03:10:04;1169.60;;;997.83;;
12577;SDS011;6354;51.026;8.968;2022-12-18T03:12:36;1306.07;;;999.90;;
12577;SDS011;6354;51.026;8.968;2022-12-18T03:15:11;1168.23;;;965.07;;
12577;SDS011;6354;51.026;8.968;2022-12-18T03:17:44;1100.13;;;965.30;;
12577;SDS011;6354;51.026;8.968;2022-12-18T03:20:18;1150.47;;;999.90;;
12577;SDS011;6354;51.026;8.968;2022-12-18T03:22:49;1105.10;;;984.23;;
12577;SDS011;6354;51.026;8.968;2022-12-18T03:25:22;1103.33;;;984.77;;
12577;SDS011;6354;51.026;8.968;2022-12-18T03:27:55;1075.50;;;957.00;;
12577;SDS011;6354;51.026;8.968;2022-12-18T03:30:27;1074.10;;;957.87;;
12577;SDS011;6354;51.026;8.968;2022-12-18T03:33:00;1041.47;;;940.80;;
12577;SDS011;6354;51.026;8.968;2022-12-18T03:35:33;1065.57;;;959.40;;
12577;SDS011;6354;51.026;8.968;2022-12-18T03:38:04;1030.10;;;924.90;;
12577;SDS011;6354;51.026;8.968;2022-12-18T03:40:35;1121.00;;;996.53;;
12577;SDS011;6354;51.026;8.968;2022-12-18T03:43:08;1105.87;;;989.43;;
12577;SDS011;6354;51.026;8.968;2022-12-18T03:45:43;1021.93;;;916.73;;
12577;SDS011;6354;51.026;8.968;2022-12-18T03:48:19;1072.83;;;938.47;;
12577;SDS011;6354;51.026;8.968;2022-12-18T03:50:56;1128.77;;;937.93;;
12577;SDS011;6354;51.026;8.968;2022-12-18T03:53:29;1175.27;;;966.70;;
12577;SDS011;6354;51.026;8.968;2022-12-18T03:56:05;951.40;;;849.13;;
12577;SDS011;6354;51.026;8.968;2022-12-18T03:58:34;1147.93;;;891.13;;
12577;SDS011;6354;51.026;8.968;2022-12-18T04:01:08;1273.80;;;898.60;;
12577;SDS011;6354;51.026;8.968;2022-12-18T04:03:41;1201.87;;;953.60;;
12577;SDS011;6354;51.026;8.968;2022-12-18T04:06:11;1343.27;;;999.90;;
12577;SDS011;6354;51.026;8.968;2022-12-18T04:08:40;1130.30;;;956.07;;
12577;SDS011;6354;51.026;8.968;2022-12-18T04:11:09;988.70;;;883.80;;
12577;SDS011;6354;51.026;8.968;2022-12-18T04:13:37;1001.73;;;894.23;;
12577;SDS011;6354;51.026;8.968;2022-12-18T04:16:07;1061.60;;;949.93;;
12577;SDS011;6354;51.026;8.968;2022-12-18T04:18:36;1038.77;;;931.13;;
12577;SDS011;6354;51.026;8.968;2022-12-18T04:21:04;1085.20;;;954.53;;
12577;SDS011;6354;51.026;8.968;2022-12-18T04:23:33;1062.87;;;955.10;;
12577;SDS011;6354;51.026;8.968;2022-12-18T04:26:01;1105.80;;;985.63;;
12577;SDS011;6354;51.026;8.968;2022-12-18T04:28:29;1097.27;;;977.20;;
12577;SDS011;6354;51.026;8.968;2022-12-18T04:30:57;1065.43;;;955.60;;
12577;SDS011;6354;51.026;8.968;2022-12-18T04:33:27;1103.43;;;981.33;;
12577;SDS011;6354;51.026;8.968;2022-12-18T04:35:55;1159.77;;;984.00;;
12577;SDS011;6354;51.026;8.968;2022-12-18T04:38:23;1005.00;;;898.70;;
12577;SDS011;6354;51.026;8.968;2022-12-18T04:40:51;1148.30;;;930.23;;
12577;SDS011;6354;51.026;8.968;2022-12-18T04:43:19;1228.17;;;999.90;;
12577;SDS011;6354;51.026;8.968;2022-12-18T04:45:47;1225.37;;;997.60;;
12577;SDS011;6354;51.026;8.968;2022-12-18T04:48:15;1245.90;;;996.97;;
12577;SDS011;6354;51.026;8.968;2022-12-18T04:50:45;1165.63;;;973.43;;
12577;SDS011;6354;51.026;8.968;2022-12-18T04:53:14;1144.03;;;936.13;;
12577;SDS011;6354;51.026;8.968;2022-12-18T04:55:42;1350.43;;;993.87;;
12577;SDS011;6354;51.026;8.968;2022-12-18T04:58:10;1332.97;;;999.90;;
12577;SDS011;6354;51.026;8.968;2022-12-18T05:00:39;1419.37;;;998.07;;
12577;SDS011;6354;51.026;8.968;2022-12-18T05:03:07;1424.03;;;999.90;;
12577;SDS011;6354;51.026;8.968;2022-12-18T05:05:35;1369.77;;;961.73;;
12577;SDS011;6354;51.026;8.968;2022-12-18T05:08:04;1096.43;;;957.87;;
12577;SDS011;6354;51.026;8.968;2022-12-18T05:10:32;1137.60;;;964.97;;
12577;SDS011;6354;51.026;8.968;2022-12-18T05:13:03;1282.43;;;992.33;;
12577;SDS011;6354;51.026;8.968;2022-12-18T05:15:32;1199.77;;;953.27;;
12577;SDS011;6354;51.026;8.968;2022-12-18T05:18:01;1174.20;;;965.23;;
12577;SDS011;6354;51.026;8.968;2022-12-18T05:20:30;1172.80;;;943.67;;
12577;SDS011;6354;51.026;8.968;2022-12-18T05:22:59;1091.20;;;932.40;;
12577;SDS011;6354;51.026;8.968;2022-12-18T05:25:28;1067.63;;;945.90;;
12577;SDS011;6354;51.026;8.968;2022-12-18T05:27:56;1086.00;;;959.57;;
12577;SDS011;6354;51.026;8.968;2022-12-18T05:30:25;1390.63;;;999.90;;
12577;SDS011;6354;51.026;8.968;2022-12-18T05:32:53;1301.27;;;999.90;;
12577;SDS011;6354;51.026;8.968;2022-12-18T05:35:22;1244.87;;;999.90;;
12577;SDS011;6354;51.026;8.968;2022-12-18T05:37:50;1395.33;;;999.90;;
12577;SDS011;6354;51.026;8.968;2022-12-18T05:40:18;1149.47;;;991.33;;
12577;SDS011;6354;51.026;8.968;2022-12-18T05:42:47;1310.37;;;999.90;;
12577;SDS011;6354;51.026;8.968;2022-12-18T05:45:15;1220.17;;;983.93;;
12577;SDS011;6354;51.026;8.968;2022-12-18T05:47:43;1125.53;;;955.37;;
12577;SDS011;6354;51.026;8.968;2022-12-18T05:50:12;1199.10;;;988.70;;
12577;SDS011;6354;51.026;8.968;2022-12-18T05:52:40;1267.53;;;999.90;;
12577;SDS011;6354;51.026;8.968;2022-12-18T05:55:08;1290.10;;;999.90;;
12577;SDS011;6354;51.026;8.968;2022-12-18T05:57:36;1177.10;;;972.27;;
12577;SDS011;6354;51.026;8.968;2022-12-18T06:00:06;1200.50;;;970.57;;
12577;SDS011;6354;51.026;8.968;2022-12-18T06:02:35;1081.40;;;933.67;;
12577;SDS011;6354;51.026;8.968;2022-12-18T06:05:04;1096.80;;;966.50;;
12577;SDS011;6354;51.026;8.968;2022-12-18T06:07:33;1055.73;;;934.33;;
12577;SDS011;6354;51.026;8.968;2022-12-18T06:10:01;1147.27;;;990.97;;
12577;SDS011;6354;51.026;8.968;2022-12-18T06:12:29;1049.93;;;934.97;;
12577;SDS011;6354;51.026;8.968;2022-12-18T06:14:59;1044.70;;;907.20;;
12577;SDS011;6354;51.026;8.968;2022-12-18T06:17:29;1001.90;;;896.60;;
12577;SDS011;6354;51.026;8.968;2022-12-18T06:19:58;1056.90;;;946.43;;
12577;SDS011;6354;51.026;8.968;2022-12-18T06:22:27;1008.27;;;907.43;;
12577;SDS011;6354;51.026;8.968;2022-12-18T06:24:55;1070.03;;;962.07;;
12577;SDS011;6354;51.026;8.968;2022-12-18T06:27:24;1138.67;;;999.90;;
12577;SDS011;6354;51.026;8.968;2022-12-18T06:29:52;1160.57;;;999.90;;
12577;SDS011;6354;51.026;8.968;2022-12-18T06:32:20;1070.80;;;953.43;;
12577;SDS011;6354;51.026;8.968;2022-12-18T06:34:49;1115.10;;;997.87;;
12577;SDS011;6354;51.026;8.968;2022-12-18T06:37:17;1099.33;;;988.30;;
12577;SDS011;6354;51.026;8.968;2022-12-18T06:39:46;1070.00;;;958.07;;
12577;SDS011;6354;51.026;8.968;2022-12-18T06:42:14;1087.73;;;976.40;;
12577;SDS011;6354;51.026;8.968;2022-12-18T06:44:42;1107.83;;;991.87;;
12577;SDS011;6354;51.026;8.968;2022-12-18T06:47:10;1027.97;;;914.70;;
12577;SDS011;6354;51.026;8.968;2022-12-18T06:49:38;1095.57;;;964.43;;
12577;SDS011;6354;51.026;8.968;2022-12-18T06:52:08;1115.83;;;962.97;;
12577;SDS011;6354;51.026;8.968;2022-12-18T06:54:36;1101.30;;;971.17;;
12577;SDS011;6354;51.026;8.968;2022-12-18T06:57:04;1305.17;;;999.90;;
12577;SDS011;6354;51.026;8.968;2022-12-18T06:59:32;1212.03;;;996.30;;
12577;SDS011;6354;51.026;8.968;2022-12-18T07:02:00;1105.93;;;983.10;;
12577;SDS011;6354;51.026;8.968;2022-12-18T07:04:29;1114.47;;;976.47;;
12577;SDS011;6354;51.026;8.968;2022-12-18T07:06:57;1090.97;;;971.73;;
12577;SDS011;6354;51.026;8.968;2022-12-18T07:09:27;1046.33;;;923.93;;
12577;SDS011;6354;51.026;8.968;2022-12-18T07:11:55;1006.10;;;902.90;;
12577;SDS011;6354;51.026;8.968;2022-12-18T07:14:24;1021.33;;;919.43;;
12577;SDS011;6354;51.026;8.968;2022-12-18T07:16:52;1040.90;;;940.70;;
12577;SDS011;6354;51.026;8.968;2022-12-18T07:19:20;1053.63;;;942.17;;
12577;SDS011;6354;51.026;8.968;2022-12-18T07:21:49;963.73;;;871.30;;
12577;SDS011;6354;51.026;8.968;2022-12-18T07:24:17;962.03;;;869.67;;
12577;SDS011;6354;51.026;8.968;2022-12-18T07:26:47;1003.13;;;906.83;;
12577;SDS011;6354;51.026;8.968;2022-12-18T07:29:15;1059.40;;;952.43;;
12577;SDS011;6354;51.026;8.968;2022-12-18T07:31:43;1126.03;;;999.90;;
12577;SDS011;6354;51.026;8.968;2022-12-18T07:34:12;1103.00;;;925.80;;
12577;SDS011;6354;51.026;8.968;2022-12-18T07:36:41;1443.97;;;955.23;;
12577;SDS011;6354;51.026;8.968;2022-12-18T07:39:10;1288.53;;;999.90;;
12577;SDS011;6354;51.026;8.968;2022-12-18T07:41:38;1254.17;;;990.80;;
12577;SDS011;6354;51.026;8.968;2022-12-18T07:44:13;1201.40;;;954.50;;
12577;SDS011;6354;51.026;8.968;2022-12-18T07:46:41;1204.87;;;999.90;;
12577;SDS011;6354;51.026;8.968;2022-12-18T07:49:09;1097.17;;;928.30;;
12577;SDS011;6354;51.026;8.968;2022-12-18T07:51:38;1048.87;;;933.90;;
12577;SDS011;6354;51.026;8.968;2022-12-18T07:54:06;1042.83;;;932.43;;
12577;SDS011;6354;51.026;8.968;2022-12-18T07:56:34;1083.47;;;957.10;;
12577;SDS011;6354;51.026;8.968;2022-12-18T07:59:02;1092.63;;;939.43;;
12577;SDS011;6354;51.026;8.968;2022-12-18T08:01:32;1180.57;;;982.77;;
12577;SDS011;6354;51.026;8.968;2022-12-18T08:04:01;1140.17;;;976.03;;
12577;SDS011;6354;51.026;8.968;2022-12-18T08:06:29;1130.33;;;931.20;;
12577;SDS011;6354;51.026;8.968;2022-12-18T08:08:57;1171.90;;;980.80;;
12577;SDS011;6354;51.026;8.968;2022-12-18T08:11:26;1186.00;;;998.53;;
12577;SDS011;6354;51.026;8.968;2022-12-18T08:13:55;1237.90;;;999.80;;
12577;SDS011;6354;51.026;8.968;2022-12-18T08:16:23;1124.03;;;954.63;;
12577;SDS011;6354;51.026;8.968;2022-12-18T08:18:53;1252.67;;;999.90;;
12577;SDS011;6354;51.026;8.968;2022-12-18T08:21:23;1188.67;;;989.13;;
12577;SDS011;6354;51.026;8.968;2022-12-18T08:23:53;1252.50;;;999.90;;
12577;SDS011;6354;51.026;8.968;2022-12-18T08:26:23;1043.00;;;931.20;;
12577;SDS011;6354;51.026;8.968;2022-12-18T08:28:53;1172.33;;;999.90;;
12577;SDS011;6354;51.026;8.968;2022-12-18T08:31:21;1256.57;;;972.80;;
12577;SDS011;6354;51.026;8.968;2022-12-18T08:33:50;1216.57;;;999.90;;
12577;SDS011;6354;51.026;8.968;2022-12-18T08:36:21;1214.37;;;975.23;;
12577;SDS011;6354;51.026;8.968;2022-12-18T08:38:50;1233.43;;;999.90;;
12577;SDS011;6354;51.026;8.968;2022-12-18T08:41:19;1292.50;;;999.90;;
12577;SDS011;6354;51.026;8.968;2022-12-18T08:43:48;1194.40;;;999.90;;
12577;SDS011;6354;51.026;8.968;2022-12-18T08:46:34;1244.27;;;999.90;;
12577;SDS011;6354;51.026;8.968;2022-12-18T08:49:04;1217.17;;;999.90;;
12577;SDS011;6354;51.026;8.968;2022-12-18T08:51:34;1323.03;;;999.90;;
12577;SDS011;6354;51.026;8.968;2022-12-18T08:54:03;1241.10;;;999.90;;
12577;SDS011;6354;51.026;8.968;2022-12-18T08:56:32;1268.53;;;999.90;;
12577;SDS011;6354;51.026;8.968;2022-12-18T08:59:00;1425.37;;;999.90;;
12577;SDS011;6354;51.026;8.968;2022-12-18T09:01:30;1305.27;;;999.90;;
12577;SDS011;6354;51.026;8.968;2022-12-18T09:04:00;1320.97;;;999.90;;
12577;SDS011;6354;51.026;8.968;2022-12-18T09:06:29;1312.13;;;999.90;;
12577;SDS011;6354;51.026;8.968;2022-12-18T09:08:59;1248.70;;;965.17;;
12577;SDS011;6354;51.026;8.968;2022-12-18T09:11:28;1265.50;;;993.90;;
12577;SDS011;6354;51.026;8.968;2022-12-18T09:13:58;1402.53;;;999.90;;
12577;SDS011;6354;51.026;8.968;2022-12-18T09:16:27;1399.43;;;999.90;;
12577;SDS011;6354;51.026;8.968;2022-12-18T09:18:58;1502.17;;;999.90;;
12577;SDS011;6354;51.026;8.968;2022-12-18T09:21:27;1630.23;;;999.90;;
12577;SDS011;6354;51.026;8.968;2022-12-18T09:24:01;1415.30;;;991.40;;
12577;SDS011;6354;51.026;8.968;2022-12-18T09:26:34;1246.90;;;971.70;;
12577;SDS011;6354;51.026;8.968;2022-12-18T09:29:04;1174.33;;;968.00;;
12577;SDS011;6354;51.026;8.968;2022-12-18T09:31:33;1825.87;;;999.90;;
12577;SDS011;6354;51.026;8.968;2022-12-18T09:34:01;1440.73;;;999.90;;
12577;SDS011;6354;51.026;8.968;2022-12-18T09:36:30;1724.33;;;999.90;;
12577;SDS011;6354;51.026;8.968;2022-12-18T09:38:58;1335.53;;;999.90;;
12577;SDS011;6354;51.026;8.968;2022-12-18T09:41:40;1513.13;;;999.90;;
12577;SDS011;6354;51.026;8.968;2022-12-18T09:44:15;1388.83;;;999.90;;
12577;SDS011;6354;51.026;8.968;2022-12-18T09:46:50;1409.53;;;999.90;;
12577;SDS011;6354;51.026;8.968;2022-12-18T09:49:22;1461.37;;;999.90;;
12577;SDS011;6354;51.026;8.968;2022-12-18T09:51:54;1299.53;;;999.90;;
12577;SDS011;6354;51.026;8.968;2022-12-18T09:54:25;1424.80;;;999.90;;
12577;SDS011;6354;51.026;8.968;2022-12-18T09:57:01;1599.47;;;999.90;;
12577;SDS011;6354;51.026;8.968;2022-12-18T09:59:30;1439.57;;;999.90;;
12577;SDS011;6354;51.026;8.968;2022-12-18T10:02:08;1338.70;;;999.90;;
12577;SDS011;6354;51.026;8.968;2022-12-18T10:04:44;1225.40;;;999.90;;
12577;SDS011;6354;51.026;8.968;2022-12-18T10:07:22;1581.40;;;999.90;;
12577;SDS011;6354;51.026;8.968;2022-12-18T10:09:58;1430.87;;;999.90;;
12577;SDS011;6354;51.026;8.968;2022-12-18T10:12:35;1327.70;;;999.90;;
12577;SDS011;6354;51.026;8.968;2022-12-18T10:15:11;1330.43;;;999.90;;
12577;SDS011;6354;51.026;8.968;2022-12-18T10:17:44;1341.83;;;999.90;;
12577;SDS011;6354;51.026;8.968;2022-12-18T10:20:20;1214.07;;;999.90;;
12577;SDS011;6354;51.026;8.968;2022-12-18T10:22:55;1389.03;;;999.90;;
12577;SDS011;6354;51.026;8.968;2022-12-18T10:25:30;1335.40;;;999.90;;
12577;SDS011;6354;51.026;8.968;2022-12-18T10:28:12;1244.57;;;999.90;;
12577;SDS011;6354;51.026;8.968;2022-12-18T10:30:42;1149.13;;;998.73;;
12577;SDS011;6354;51.026;8.968;2022-12-18T10:33:11;1571.80;;;999.90;;
12577;SDS011;6354;51.026;8.968;2022-12-18T10:35:41;1590.37;;;999.90;;
12577;SDS011;6354;51.026;8.968;2022-12-18T10:38:20;1386.33;;;999.90;;
12577;SDS011;6354;51.026;8.968;2022-12-18T10:40:51;1350.87;;;999.90;;
12577;SDS011;6354;51.026;8.968;2022-12-18T10:43:22;1188.80;;;997.13;;
12577;SDS011;6354;51.026;8.968;2022-12-18T10:46:03;1254.93;;;999.90;;
12577;SDS011;6354;51.026;8.968;2022-12-18T10:48:49;1126.20;;;986.73;;
12577;SDS011;6354;51.026;8.968;2022-12-18T10:51:21;1466.87;;;999.90;;
12577;SDS011;6354;51.026;8.968;2022-12-18T10:53:52;1359.80;;;999.90;;
12577;SDS011;6354;51.026;8.968;2022-12-18T10:56:23;1403.00;;;999.90;;
12577;SDS011;6354;51.026;8.968;2022-12-18T10:58:59;1049.57;;;935.53;;
12577;SDS011;6354;51.026;8.968;2022-12-18T11:01:31;1237.40;;;971.43;;
12577;SDS011;6354;51.026;8.968;2022-12-18T11:04:16;1224.43;;;999.90;;
12577;SDS011;6354;51.026;8.968;2022-12-18T11:06:53;1075.63;;;961.07;;
12577;SDS011;6354;51.026;8.968;2022-12-18T11:09:24;1179.87;;;999.90;;
12577;SDS011;6354;51.026;8.968;2022-12-18T11:11:54;1083.07;;;970.50;;
12577;SDS011;6354;51.026;8.968;2022-12-18T11:14:27;1234.47;;;999.90;;
12577;SDS011;6354;51.026;8.968;2022-12-18T11:16:57;1170.07;;;999.90;;
12577;SDS011;6354;51.026;8.968;2022-12-18T11:19:51;1013.33;;;908.70;;
12577;SDS011;6354;51.026;8.968;2022-12-18T11:22:23;1074.00;;;959.97;;
12577;SDS011;6354;51.026;8.968;2022-12-18T11:24:55;1256.43;;;999.90;;
12577;SDS011;6354;51.026;8.968;2022-12-18T11:27:49;1150.83;;;999.90;;
12577;SDS011;6354;51.026;8.968;2022-12-18T11:30:25;1159.40;;;953.73;;
12577;SDS011;6354;51.026;8.968;2022-12-18T11:32:59;1174.80;;;999.90;;
12577;SDS011;6354;51.026;8.968;2022-12-18T11:35:38;1090.10;;;970.77;;
12577;SDS011;6354;51.026;8.968;2022-12-18T11:38:15;941.47;;;851.23;;
12577;SDS011;6354;51.026;8.968;2022-12-18T11:40:50;1289.50;;;999.90;;
12577;SDS011;6354;51.026;8.968;2022-12-18T11:43:25;1196.27;;;999.90;;
12577;SDS011;6354;51.026;8.968;2022-12-18T11:45:59;1006.53;;;900.83;;
12577;SDS011;6354;51.026;8.968;2022-12-18T11:48:30;1310.93;;;998.50;;
12577;SDS011;6354;51.026;8.968;2022-12-18T11:51:05;1051.67;;;944.73;;
12577;SDS011;6354;51.026;8.968;2022-12-18T11:53:39;1157.70;;;999.90;;
12577;SDS011;6354;51.026;8.968;2022-12-18T11:56:25;1052.80;;;942.67;;
12577;SDS011;6354;51.026;8.968;2022-12-18T11:59:00;1096.30;;;975.67;;
12577;SDS011;6354;51.026;8.968;2022-12-18T12:01:39;1217.27;;;999.90;;
12577;SDS011;6354;51.026;8.968;2022-12-18T12:04:32;1598.60;;;999.90;;
12577;SDS011;6354;51.026;8.968;2022-12-18T12:07:30;1383.43;;;999.90;;
12577;SDS011;6354;51.026;8.968;2022-12-18T12:10:08;1369.63;;;999.90;;
12577;SDS011;6354;51.026;8.968;2022-12-18T12:12:52;993.07;;;887.97;;
12577;SDS011;6354;51.026;8.968;2022-12-18T12:15:34;1000.23;;;903.33;;
12577;SDS011;6354;51.026;8.968;2022-12-18T12:18:16;973.40;;;880.80;;
12577;SDS011;6354;51.026;8.968;2022-12-18T12:20:53;1065.17;;;955.90;;
12577;SDS011;6354;51.026;8.968;2022-12-18T12:23:30;968.03;;;876.90;;
12577;SDS011;6354;51.026;8.968;2022-12-18T12:26:06;1088.03;;;987.47;;
12577;SDS011;6354;51.026;8.968;2022-12-18T12:28:48;1349.83;;;999.90;;
12577;SDS011;6354;51.026;8.968;2022-12-18T12:31:35;1185.77;;;999.90;;
12577;SDS011;6354;51.026;8.968;2022-12-18T12:34:13;1102.40;;;982.87;;
12577;SDS011;6354;51.026;8.968;2022-12-18T12:36:49;1179.43;;;991.70;;
12577;SDS011;6354;51.026;8.968;2022-12-18T12:39:30;1496.83;;;999.90;;
12577;SDS011;6354;51.026;8.968;2022-12-18T12:42:02;1067.27;;;967.23;;
12577;SDS011;6354;51.026;8.968;2022-12-18T12:44:51;1360.77;;;999.90;;
12577;SDS011;6354;51.026;8.968;2022-12-18T12:47:25;1321.57;;;995.90;;
12577;SDS011;6354;51.026;8.968;2022-12-18T12:50:00;1173.30;;;999.90;;
12577;SDS011;6354;51.026;8.968;2022-12-18T12:52:34;841.40;;;760.30;;
12577;SDS011;6354;51.026;8.968;2022-12-18T12:55:24;983.03;;;880.60;;
12577;SDS011;6354;51.026;8.968;2022-12-18T12:57:58;934.67;;;852.00;;
12577;SDS011;6354;51.026;8.968;2022-12-18T13:00:36;1335.07;;;999.90;;
12577;SDS011;6354;51.026;8.968;2022-12-18T13:03:09;1415.57;;;999.90;;
12577;SDS011;6354;51.026;8.968;2022-12-18T13:05:45;1078.70;;;935.67;;
12577;SDS011;6354;51.026;8.968;2022-12-18T13:08:25;1113.97;;;991.33;;
12577;SDS011;6354;51.026;8.968;2022-12-18T13:11:00;1369.57;;;999.90;;
12577;SDS011;6354;51.026;8.968;2022-12-18T13:13:49;1178.50;;;987.27;;
12577;SDS011;6354;51.026;8.968;2022-12-18T13:16:20;1455.47;;;963.40;;
12577;SDS011;6354;51.026;8.968;2022-12-18T13:18:49;1133.73;;;990.87;;
12577;SDS011;6354;51.026;8.968;2022-12-18T13:21:23;1101.43;;;982.07;;
12577;SDS011;6354;51.026;8.968;2022-12-18T13:23:55;981.53;;;888.00;;
12577;SDS011;6354;51.026;8.968;2022-12-18T13:26:33;1292.80;;;902.03;;
12577;SDS011;6354;51.026;8.968;2022-12-18T13:29:01;974.00;;;860.77;;
12577;SDS011;6354;51.026;8.968;2022-12-18T13:34:29;1209.70;;;999.90;;
12577;SDS011;6354;51.026;8.968;2022-12-18T13:40:06;963.57;;;855.20;;
12577;SDS011;6354;51.026;8.968;2022-12-18T13:43:28;1488.47;;;999.90;;
12577;SDS011;6354;51.026;8.968;2022-12-18T13:48:57;1657.87;;;829.90;;
12577;SDS011;6354;51.026;8.968;2022-12-18T13:51:29;1168.90;;;989.73;;
12577;SDS011;6354;51.026;8.968;2022-12-18T13:54:00;984.50;;;879.87;;
12577;SDS011;6354;51.026;8.968;2022-12-18T13:56:34;1206.67;;;999.90;;
12577;SDS011;6354;51.026;8.968;2022-12-18T13:59:13;1710.20;;;996.87;;
12577;SDS011;6354;51.026;8.968;2022-12-18T14:01:51;1094.33;;;978.03;;
12577;SDS011;6354;51.026;8.968;2022-12-18T14:04:23;872.10;;;778.37;;
12577;SDS011;6354;51.026;8.968;2022-12-18T14:06:55;1301.00;;;986.27;;
12577;SDS011;6354;51.026;8.968;2022-12-18T14:09:27;1999.90;;;980.70;;
12577;SDS011;6354;51.026;8.968;2022-12-18T14:11:59;1395.07;;;995.73;;
12577;SDS011;6354;51.026;8.968;2022-12-18T14:14:46;1527.13;;;994.30;;
12577;SDS011;6354;51.026;8.968;2022-12-18T14:17:20;1817.27;;;919.40;;
12577;SDS011;6354;51.026;8.968;2022-12-18T14:19:50;1762.63;;;998.27;;
12577;SDS011;6354;51.026;8.968;2022-12-18T14:22:19;1999.90;;;999.90;;
12577;SDS011;6354;51.026;8.968;2022-12-18T14:25:04;1999.90;;;999.90;;
12577;SDS011;6354;51.026;8.968;2022-12-18T14:27:43;1999.90;;;999.90;;
12577;SDS011;6354;51.026;8.968;2022-12-18T14:30:23;1671.53;;;999.90;;
12577;SDS011;6354;51.026;8.968;2022-12-18T14:33:02;1274.30;;;873.47;;
12577;SDS011;6354;51.026;8.968;2022-12-18T14:35:31;1999.90;;;999.90;;
12577;SDS011;6354;51.026;8.968;2022-12-18T14:38:18;1934.60;;;974.10;;